createdAt,value
2022-08-30T00:00:56.701Z,4.47
2022-08-30T00:03:59.764Z,4.57
2022-08-30T00:07:03.717Z,4.60
2022-08-30T00:10:06.855Z,5.13
2022-08-30T00:13:10.576Z,4.40
2022-08-30T00:16:13.533Z,4.87
2022-08-30T00:19:15.664Z,4.53
2022-08-30T00:22:20.728Z,5.20
2022-08-30T00:25:23.510Z,4.57
2022-08-30T00:28:25.614Z,4.60
2022-08-30T00:31:27.756Z,4.80
2022-08-30T00:34:29.944Z,5.03
2022-08-30T00:37:32.123Z,5.43
2022-08-30T00:40:34.420Z,4.47
2022-08-30T00:43:40.009Z,4.80
2022-08-30T00:46:42.164Z,4.50
2022-08-30T00:49:46.105Z,5.13
2022-08-30T00:52:49.913Z,5.33
2022-08-30T00:55:53.318Z,4.47
2022-08-30T00:58:59.538Z,5.00
2022-08-30T01:02:03.163Z,4.83
2022-08-30T01:05:10.555Z,4.70
2022-08-30T01:08:20.388Z,5.20
2022-08-30T01:11:24.080Z,4.50
2022-08-30T01:14:26.232Z,4.50
2022-08-30T01:17:31.331Z,4.20
2022-08-30T01:20:43.293Z,4.60
2022-08-30T01:23:47.901Z,4.63
2022-08-30T01:26:49.840Z,3.90
2022-08-30T01:29:52.220Z,4.33
2022-08-30T01:33:02.627Z,4.07
2022-08-30T01:36:08.228Z,4.50
2022-08-30T01:39:13.341Z,4.27
2022-08-30T01:42:17.962Z,4.50
2022-08-30T01:45:19.679Z,4.17
2022-08-30T01:48:22.108Z,4.27
2022-08-30T01:51:30.997Z,4.37
2022-08-30T01:54:37.750Z,4.30
2022-08-30T01:57:40.212Z,4.00
2022-08-30T02:00:43.643Z,4.40
2022-08-30T02:04:04.357Z,4.00
2022-08-30T02:07:06.154Z,4.40
2022-08-30T02:10:08.396Z,4.23
2022-08-30T02:13:10.113Z,4.10
2022-08-30T02:16:16.068Z,3.83
2022-08-30T02:19:18.013Z,3.97
2022-08-30T02:22:20.945Z,4.00
2022-08-30T02:25:22.673Z,3.90
2022-08-30T02:28:25.699Z,3.67
2022-08-30T02:31:27.395Z,3.50
2022-08-30T02:34:29.125Z,4.10
2022-08-30T02:37:30.868Z,4.30
2022-08-30T02:40:32.861Z,4.13
2022-08-30T02:43:34.570Z,4.30
2022-08-30T02:46:36.800Z,4.37
2022-08-30T02:49:38.439Z,3.97
2022-08-30T02:52:40.226Z,5.60
2022-08-30T02:55:41.984Z,5.03
2022-08-30T02:58:44.966Z,3.67
2022-08-30T03:01:46.925Z,3.63
2022-08-30T03:04:49.253Z,3.90
2022-08-30T03:07:51.691Z,3.63
2022-08-30T03:10:53.401Z,3.77
2022-08-30T03:13:55.206Z,3.83
2022-08-30T03:16:59.547Z,3.80
2022-08-30T03:20:02.142Z,3.83
2022-08-30T03:23:07.438Z,3.30
2022-08-30T03:26:12.500Z,3.90
2022-08-30T03:29:14.310Z,3.53
2022-08-30T03:32:16.057Z,3.50
2022-08-30T03:35:18.610Z,3.40
2022-08-30T03:38:20.309Z,3.73
2022-08-30T03:41:22.009Z,7.77
2022-08-30T03:44:24.629Z,6.00
2022-08-30T03:47:26.317Z,5.57
2022-08-30T03:50:28.946Z,4.90
2022-08-30T03:53:30.621Z,4.40
2022-08-30T03:56:32.393Z,4.73
2022-08-30T03:59:34.085Z,4.80
2022-08-30T04:02:37.378Z,4.67
2022-08-30T04:05:39.190Z,3.90
2022-08-30T04:08:41.035Z,3.77
2022-08-30T04:11:42.798Z,3.67
2022-08-30T04:14:44.477Z,3.80
2022-08-30T04:17:46.753Z,4.00
2022-08-30T04:20:48.690Z,4.20
2022-08-30T04:23:50.401Z,4.30
2022-08-30T04:26:52.130Z,4.83
2022-08-30T04:29:56.291Z,3.93
2022-08-30T04:32:59.014Z,3.90
2022-08-30T04:36:06.173Z,4.00
2022-08-30T04:39:07.997Z,8.70
2022-08-30T04:42:10.708Z,4.27
2022-08-30T04:45:16.076Z,3.90
2022-08-30T04:48:18.454Z,4.20
2022-08-30T04:51:20.247Z,4.23
2022-08-30T04:54:22.242Z,4.00
2022-08-30T04:57:25.844Z,8.90
2022-08-30T05:00:28.002Z,4.63
2022-08-30T05:03:30.111Z,4.43
2022-08-30T05:06:33.914Z,3.70
2022-08-30T05:09:37.641Z,3.90
2022-08-30T05:12:40.276Z,3.60
2022-08-30T05:15:42.840Z,6.13
2022-08-30T05:18:46.383Z,4.77
2022-08-30T05:21:48.075Z,4.20
2022-08-30T05:24:49.771Z,4.10
2022-08-30T05:27:52.599Z,4.40
2022-08-30T05:30:54.291Z,4.23
2022-08-30T05:33:56.808Z,4.00
2022-08-30T05:36:59.408Z,4.20
2022-08-30T05:40:01.369Z,3.50
2022-08-30T05:43:03.549Z,3.80
2022-08-30T05:46:10.989Z,4.07
2022-08-30T05:49:12.960Z,3.30
2022-08-30T05:52:17.997Z,3.50
2022-08-30T05:55:19.766Z,3.60
2022-08-30T05:58:51.603Z,3.87
2022-08-30T06:01:57.752Z,3.00
2022-08-30T06:05:00.056Z,2.80
2022-08-30T06:08:01.734Z,2.97
2022-08-30T06:11:03.390Z,3.20
2022-08-30T06:14:05.768Z,3.43
2022-08-30T06:17:16.716Z,3.27
2022-08-30T06:20:20.145Z,3.67
2022-08-30T06:23:22.319Z,3.50
2022-08-30T06:26:24.505Z,3.70
2022-08-30T06:29:26.212Z,3.83
2022-08-30T06:32:28.007Z,3.90
2022-08-30T06:35:32.664Z,4.03
2022-08-30T06:38:37.804Z,4.80
2022-08-30T06:41:41.094Z,4.63
2022-08-30T06:44:45.804Z,4.57
2022-08-30T06:47:48.477Z,4.57
2022-08-30T06:50:54.734Z,4.37
2022-08-30T06:53:56.472Z,4.50
2022-08-30T06:56:59.212Z,5.43
2022-08-30T07:00:02.335Z,5.17
2022-08-30T07:03:06.083Z,5.00
2022-08-30T07:06:09.014Z,5.00
2022-08-30T07:09:10.699Z,5.43
2022-08-30T07:12:13.880Z,5.33
2022-08-30T07:15:16.531Z,4.90
2022-08-30T07:18:37.506Z,5.90
2022-08-30T07:21:45.672Z,5.63
2022-08-30T07:24:47.957Z,5.13
2022-08-30T07:27:51.888Z,5.07
2022-08-30T07:30:53.613Z,4.93
2022-08-30T07:33:56.045Z,4.63
2022-08-30T07:36:57.773Z,5.03
2022-08-30T07:39:59.489Z,4.87
2022-08-30T07:43:02.264Z,4.80
2022-08-30T07:46:13.623Z,5.13
2022-08-30T07:49:15.793Z,4.40
2022-08-30T07:52:17.523Z,3.60
2022-08-30T07:55:19.334Z,3.20
2022-08-30T07:58:21.044Z,3.13
2022-08-30T08:01:24.822Z,3.70
2022-08-30T08:04:26.622Z,2.83
2022-08-30T08:07:28.342Z,5.13
2022-08-30T08:10:30.052Z,4.70
2022-08-30T08:13:32.754Z,2.97
2022-08-30T08:16:38.724Z,3.80
2022-08-30T08:19:40.408Z,3.67
2022-08-30T08:22:43.383Z,4.63
2022-08-30T08:25:45.108Z,3.83
2022-08-30T08:28:47.502Z,4.00
2022-08-30T08:31:49.378Z,4.30
2022-08-30T08:34:51.072Z,4.23
2022-08-30T08:37:53.366Z,4.83
2022-08-30T08:41:26.336Z,5.93
2022-08-30T08:44:40.677Z,5.07
2022-08-30T08:48:01.430Z,4.53
2022-08-30T08:51:29.091Z,4.20
2022-08-30T08:54:39.411Z,4.30
2022-08-30T08:57:41.768Z,3.93
2022-08-30T09:00:43.521Z,4.00
2022-08-30T09:03:48.059Z,4.30
2022-08-30T09:07:04.914Z,4.23
2022-08-30T09:10:40.448Z,4.23
2022-08-30T09:13:47.570Z,4.30
2022-08-30T09:16:51.481Z,4.60
2022-08-30T09:19:53.129Z,4.57
2022-08-30T09:22:57.525Z,5.10
2022-08-30T09:26:06.388Z,3.70
2022-08-30T09:29:17.573Z,3.83
2022-08-30T09:32:32.059Z,3.93
2022-08-30T09:35:47.062Z,3.20
2022-08-30T09:39:01.516Z,3.10
2022-08-30T09:42:16.963Z,3.00
2022-08-30T09:45:28.325Z,3.10
2022-08-30T09:48:40.778Z,3.33
2022-08-30T09:52:03.336Z,3.13
2022-08-30T09:55:31.334Z,3.20
2022-08-30T09:58:36.081Z,3.00
2022-08-30T10:01:53.262Z,3.17
2022-08-30T10:05:07.656Z,3.77
2022-08-30T10:08:31.893Z,2.83
2022-08-30T10:12:04.096Z,4.27
2022-08-30T10:15:21.724Z,2.80
2022-08-30T10:18:40.380Z,3.40
2022-08-30T10:22:01.402Z,2.63
2022-08-30T10:25:16.085Z,2.67
2022-08-30T10:28:37.660Z,3.40
2022-08-30T10:31:48.249Z,3.10
2022-08-30T10:35:19.869Z,2.87
2022-08-30T10:38:35.381Z,3.63
2022-08-30T10:41:42.915Z,3.30
2022-08-30T10:44:52.806Z,3.77
2022-08-30T10:48:08.486Z,2.97
2022-08-30T10:51:33.797Z,2.60
2022-08-30T10:54:50.850Z,3.10
2022-08-30T10:57:53.548Z,3.20
2022-08-30T11:01:29.816Z,2.57
2022-08-30T11:05:13.332Z,3.17
2022-08-30T11:08:40.789Z,3.33
2022-08-30T11:12:13.355Z,3.80
2022-08-30T11:15:23.681Z,3.27
2022-08-30T11:18:27.653Z,3.20
2022-08-30T11:21:38.653Z,3.23
2022-08-30T11:25:11.537Z,3.40
2022-08-30T11:28:35.372Z,3.30
2022-08-30T11:31:41.661Z,3.70
2022-08-30T11:34:46.886Z,2.70
2022-08-30T11:37:49.413Z,2.63
2022-08-30T11:41:07.268Z,2.90
2022-08-30T11:44:31.420Z,3.20
2022-08-30T11:47:44.721Z,2.70
2022-08-30T11:51:03.340Z,3.07
2022-08-30T11:54:13.189Z,2.77
2022-08-30T11:57:32.952Z,2.80
2022-08-30T12:00:39.572Z,3.00
2022-08-30T12:03:43.177Z,3.13
2022-08-30T12:07:08.041Z,2.93
2022-08-30T12:10:23.892Z,3.07
2022-08-30T12:13:46.565Z,3.03
2022-08-30T12:17:07.897Z,2.97
2022-08-30T12:20:23.805Z,2.57
2022-08-30T12:23:44.589Z,3.00
2022-08-30T12:26:49.407Z,2.80
2022-08-30T12:29:59.319Z,3.20
2022-08-30T12:33:01.187Z,3.03
2022-08-30T12:36:03.253Z,3.47
2022-08-30T12:39:16.097Z,3.20
2022-08-30T12:42:19.740Z,2.93
2022-08-30T12:45:25.664Z,2.90
2022-08-30T12:48:29.149Z,3.07
2022-08-30T12:51:41.107Z,3.10
2022-08-30T12:54:45.202Z,2.80
2022-08-30T12:58:13.846Z,3.00
2022-08-30T13:01:27.683Z,2.87
2022-08-30T13:04:29.484Z,2.47
2022-08-30T13:07:34.426Z,2.90
2022-08-30T13:10:37.422Z,3.30
2022-08-30T13:13:51.916Z,2.70
2022-08-30T13:17:06.753Z,2.60
2022-08-30T13:20:11.730Z,2.50
2022-08-30T13:23:23.397Z,2.83
2022-08-30T13:26:25.897Z,2.77
2022-08-30T13:29:29.508Z,3.00
2022-08-30T13:32:38.803Z,2.67
2022-08-30T13:35:40.958Z,2.60
2022-08-30T13:38:43.022Z,3.00
2022-08-30T13:41:44.832Z,3.47
2022-08-30T13:44:47.914Z,2.67
2022-08-30T13:47:50.390Z,2.97
2022-08-30T13:50:53.349Z,3.07
2022-08-30T13:53:56.922Z,2.80
2022-08-30T13:56:59.313Z,2.77
2022-08-30T14:00:10.307Z,2.70
2022-08-30T14:03:15.316Z,2.50
2022-08-30T14:06:32.594Z,2.80
2022-08-30T14:09:35.040Z,2.60
2022-08-30T14:19:23.079Z,2.90
2022-08-30T14:22:24.848Z,2.50
2022-08-30T14:25:28.616Z,2.33
2022-08-30T14:28:30.500Z,2.00
2022-08-30T14:31:33.499Z,2.50
2022-08-30T14:34:35.318Z,2.60
2022-08-30T14:37:37.045Z,2.67
2022-08-30T14:40:44.076Z,2.47
2022-08-30T14:43:45.950Z,3.17
2022-08-30T14:46:48.849Z,2.50
2022-08-30T14:49:55.428Z,2.73
2022-08-30T14:52:57.097Z,2.40
2022-08-30T14:55:58.889Z,2.63
2022-08-30T14:59:02.858Z,2.47
2022-08-30T15:02:05.529Z,2.27
2022-08-30T15:05:08.505Z,2.50
2022-08-30T15:08:10.369Z,2.60
2022-08-30T15:11:15.629Z,2.20
2022-08-30T15:14:17.359Z,2.80
2022-08-30T15:17:19.289Z,2.50
2022-08-30T15:20:21.056Z,4.03
2022-08-30T15:23:22.986Z,2.73
2022-08-30T15:26:26.863Z,5.43
2022-08-30T15:29:30.727Z,2.83
2022-08-30T15:32:33.776Z,2.63
2022-08-30T15:35:35.583Z,2.30
2022-08-30T15:38:37.409Z,2.30
2022-08-30T15:41:44.414Z,2.30
2022-08-30T15:44:50.620Z,2.50
2022-08-30T15:47:54.930Z,2.00
2022-08-30T15:50:58.149Z,2.20
2022-08-30T15:54:00.128Z,2.57
2022-08-30T15:57:02.085Z,2.40
2022-08-30T16:00:09.784Z,2.30
2022-08-30T16:03:11.465Z,2.70
2022-08-30T16:06:16.221Z,2.37
2022-08-30T16:09:19.198Z,2.50
2022-08-30T16:12:23.619Z,2.33
2022-08-30T16:15:26.141Z,2.60
2022-08-30T16:18:28.005Z,2.33
2022-08-30T16:21:32.228Z,2.70
2022-08-30T16:24:34.474Z,2.50
2022-08-30T16:27:39.553Z,2.63
2022-08-30T16:30:42.183Z,2.63
2022-08-30T16:33:46.009Z,3.50
2022-08-30T16:36:47.928Z,3.17
2022-08-30T16:40:07.314Z,3.23
2022-08-30T16:43:10.311Z,3.13
2022-08-30T16:46:15.058Z,3.40
2022-08-30T16:49:16.836Z,3.00
2022-08-30T16:53:01.137Z,3.20
2022-08-30T16:56:08.889Z,3.63
2022-08-30T16:59:12.086Z,3.57
2022-08-30T17:02:13.914Z,3.70
2022-08-30T17:05:15.611Z,3.30
2022-08-30T17:08:17.470Z,3.93
2022-08-30T17:11:20.134Z,3.50
2022-08-30T17:14:27.859Z,4.23
2022-08-30T17:17:31.040Z,4.20
2022-08-30T17:20:33.667Z,4.50
2022-08-30T17:23:36.238Z,4.23
2022-08-30T17:26:39.962Z,4.00
2022-08-30T17:29:43.680Z,4.20
2022-08-30T17:32:45.384Z,4.10
2022-08-30T17:35:53.297Z,3.87
2022-08-30T17:38:54.970Z,3.57
2022-08-30T17:41:57.396Z,3.83
2022-08-30T17:45:07.629Z,3.77
2022-08-30T17:48:09.623Z,3.60
2022-08-30T17:51:12.005Z,3.73
2022-08-30T17:54:13.795Z,3.57
2022-08-30T17:57:15.544Z,4.80
2022-08-30T18:00:17.499Z,3.90
2022-08-30T18:03:20.129Z,3.73
2022-08-30T18:06:21.810Z,7.67
2022-08-30T18:09:24.266Z,3.83
2022-08-30T18:12:26.001Z,3.93
2022-08-30T18:15:28.701Z,3.50
2022-08-30T18:18:31.217Z,8.87
2022-08-30T18:21:36.061Z,4.10
2022-08-30T18:24:38.206Z,3.40
2022-08-30T18:27:40.141Z,2.63
2022-08-30T18:30:42.427Z,3.87
2022-08-30T18:33:44.251Z,3.23
2022-08-30T18:36:45.954Z,3.50
2022-08-30T18:39:48.426Z,3.00
2022-08-30T18:42:54.222Z,3.30
2022-08-30T18:45:56.075Z,2.67
2022-08-30T18:48:59.998Z,2.77
2022-08-30T18:52:06.067Z,3.40
2022-08-30T18:55:08.585Z,4.57
2022-08-30T18:58:10.289Z,2.97
2022-08-30T19:01:13.096Z,2.67
2022-08-30T19:07:37.489Z,2.50
2022-08-30T19:10:39.489Z,2.33
2022-08-30T19:13:41.583Z,2.37
2022-08-30T19:16:43.378Z,2.50
2022-08-30T19:19:48.826Z,2.50
2022-08-30T19:23:09.593Z,2.50
2022-08-30T19:26:12.804Z,4.17
2022-08-30T19:29:14.837Z,4.40
2022-08-30T19:32:16.808Z,3.83
2022-08-30T19:35:20.237Z,2.23
2022-08-30T19:38:21.965Z,2.63
2022-08-30T19:41:26.731Z,2.63
2022-08-30T19:44:28.461Z,2.30
2022-08-30T19:47:32.321Z,2.23
2022-08-30T19:50:34.097Z,2.50
2022-08-30T19:53:38.092Z,2.30
2022-08-30T19:56:39.769Z,2.23
2022-08-30T19:59:41.459Z,2.73
2022-08-30T20:02:44.743Z,2.33
2022-08-30T20:05:52.372Z,2.17
2022-08-30T20:08:56.710Z,3.33
2022-08-30T20:12:05.236Z,2.50
2022-08-30T20:15:10.291Z,3.60
2022-08-30T20:18:13.424Z,2.47
2022-08-30T20:21:16.523Z,2.27
2022-08-30T20:24:18.195Z,2.77
2022-08-30T20:24:30.262Z,2.70
2022-08-30T20:27:19.860Z,2.30
2022-08-30T20:30:21.911Z,1.90
2022-08-30T20:33:24.746Z,2.33
2022-08-30T20:36:26.616Z,2.03
2022-08-30T20:39:28.398Z,2.40
2022-08-30T20:43:05.087Z,2.27
2022-08-30T20:46:12.401Z,2.60
2022-08-30T20:49:14.449Z,2.33
2022-08-30T20:52:16.885Z,2.27
2022-08-30T20:55:20.358Z,2.47
2022-08-30T20:58:21.995Z,2.50
2022-08-30T21:01:27.795Z,2.20
2022-08-30T21:04:33.357Z,2.27
2022-08-30T21:07:35.566Z,2.63
2022-08-30T21:10:37.258Z,2.10
2022-08-30T21:13:39.314Z,2.10
2022-08-30T21:16:41.360Z,2.13
2022-08-30T21:19:44.210Z,2.30
2022-08-30T21:22:45.980Z,2.03
2022-08-30T21:25:47.743Z,2.10
2022-08-30T21:28:52.620Z,2.40
2022-08-30T21:31:55.394Z,2.40
2022-08-30T21:35:15.520Z,2.40
2022-08-30T21:38:17.604Z,2.80
2022-08-30T21:41:21.947Z,2.33
2022-08-30T21:44:26.123Z,2.27
2022-08-30T21:47:28.093Z,2.30
2022-08-30T21:50:29.799Z,1.93
2022-08-30T21:53:31.544Z,2.10
2022-08-30T21:56:34.175Z,2.27
2022-08-30T21:59:36.431Z,2.27
2022-08-30T22:02:38.153Z,2.30
2022-08-30T22:05:40.784Z,2.20
2022-08-30T22:08:44.902Z,2.00
2022-08-30T22:11:47.251Z,2.20
2022-08-30T22:14:49.013Z,2.23
2022-08-30T22:17:50.752Z,2.10
2022-08-30T22:20:52.492Z,1.70
2022-08-30T22:23:57.828Z,1.90
2022-08-30T22:27:00.715Z,2.03
2022-08-30T22:30:02.489Z,2.90
2022-08-30T22:33:04.234Z,2.13
2022-08-30T22:36:09.507Z,2.07
2022-08-30T22:39:11.271Z,1.93
2022-08-30T22:42:49.990Z,1.63
2022-08-30T22:45:51.742Z,1.97
2022-08-30T22:48:53.539Z,2.00
2022-08-30T22:51:55.185Z,1.87
2022-08-30T22:54:56.964Z,2.07
2022-08-30T22:57:58.796Z,1.90
2022-08-30T23:01:00.841Z,1.83
2022-08-30T23:04:05.577Z,2.30
2022-08-30T23:07:07.320Z,1.80
2022-08-30T23:10:11.127Z,2.10
2022-08-30T23:13:12.876Z,2.07
2022-08-30T23:16:15.997Z,2.60
2022-08-30T23:19:18.764Z,2.20
2022-08-30T23:22:20.439Z,2.20
2022-08-30T23:25:41.361Z,2.47
2022-08-30T23:29:01.880Z,2.70
2022-08-30T23:32:22.328Z,2.70
2022-08-30T23:35:42.939Z,2.30
2022-08-30T23:39:03.392Z,2.60
2022-08-30T23:42:24.990Z,2.37
2022-08-30T23:45:45.411Z,2.63
2022-08-30T23:49:07.281Z,2.80
2022-08-30T23:52:27.808Z,2.50
2022-08-30T23:55:48.276Z,2.80
2022-08-30T23:59:08.783Z,2.80
